sensor_id;sensor_type;location;lat;lon;timestamp;P1;durP1;ratioP1;P2;durP2;ratioP2
13411;SDS011;67102;51.666;6.880;2023-04-03T00:01:37;2.00;;;1.90;;
13411;SDS011;67102;51.666;6.880;2023-04-03T00:04:03;2.40;;;2.20;;
13411;SDS011;67102;51.666;6.880;2023-04-03T00:06:31;2.73;;;2.23;;
13411;SDS011;67102;51.666;6.880;2023-04-03T00:08:57;3.33;;;2.10;;
13411;SDS011;67102;51.666;6.880;2023-04-03T00:11:23;3.23;;;2.10;;
13411;SDS011;67102;51.666;6.880;2023-04-03T00:13:49;2.20;;;2.00;;
13411;SDS011;67102;51.666;6.880;2023-04-03T00:16:16;2.70;;;1.90;;
13411;SDS011;67102;51.666;6.880;2023-04-03T00:18:42;2.87;;;2.43;;
13411;SDS011;67102;51.666;6.880;2023-04-03T00:21:09;1.90;;;1.80;;
13411;SDS011;67102;51.666;6.880;2023-04-03T00:23:39;3.13;;;2.07;;
13411;SDS011;67102;51.666;6.880;2023-04-03T00:26:04;3.67;;;2.10;;
13411;SDS011;67102;51.666;6.880;2023-04-03T00:28:30;1.87;;;1.77;;
13411;SDS011;67102;51.666;6.880;2023-04-03T00:30:56;2.10;;;2.00;;
13411;SDS011;67102;51.666;6.880;2023-04-03T00:33:23;1.90;;;1.73;;
13411;SDS011;67102;51.666;6.880;2023-04-03T00:35:49;2.13;;;1.93;;
13411;SDS011;67102;51.666;6.880;2023-04-03T00:38:16;2.47;;;2.20;;
13411;SDS011;67102;51.666;6.880;2023-04-03T00:40:44;2.40;;;1.90;;
13411;SDS011;67102;51.666;6.880;2023-04-03T00:43:14;3.40;;;2.13;;
13411;SDS011;67102;51.666;6.880;2023-04-03T00:45:43;2.30;;;2.10;;
13411;SDS011;67102;51.666;6.880;2023-04-03T00:48:11;3.80;;;2.03;;
13411;SDS011;67102;51.666;6.880;2023-04-03T00:50:42;1.93;;;1.83;;
13411;SDS011;67102;51.666;6.880;2023-04-03T00:53:11;3.17;;;2.00;;
13411;SDS011;67102;51.666;6.880;2023-04-03T00:55:39;2.50;;;2.20;;
13411;SDS011;67102;51.666;6.880;2023-04-03T00:58:10;1.93;;;1.80;;
13411;SDS011;67102;51.666;6.880;2023-04-03T01:00:38;2.83;;;2.07;;
13411;SDS011;67102;51.666;6.880;2023-04-03T01:03:07;3.00;;;1.90;;
13411;SDS011;67102;51.666;6.880;2023-04-03T01:05:34;2.90;;;1.97;;
13411;SDS011;67102;51.666;6.880;2023-04-03T01:08:00;2.27;;;1.90;;
13411;SDS011;67102;51.666;6.880;2023-04-03T01:10:26;2.60;;;2.00;;
13411;SDS011;67102;51.666;6.880;2023-04-03T01:12:54;3.23;;;2.07;;
13411;SDS011;67102;51.666;6.880;2023-04-03T01:15:21;3.57;;;1.97;;
13411;SDS011;67102;51.666;6.880;2023-04-03T01:17:50;3.50;;;1.90;;
13411;SDS011;67102;51.666;6.880;2023-04-03T01:23:30;2.27;;;1.60;;
13411;SDS011;67102;51.666;6.880;2023-04-03T01:26:15;4.80;;;1.90;;
13411;SDS011;67102;51.666;6.880;2023-04-03T01:28:42;2.77;;;1.60;;
13411;SDS011;67102;51.666;6.880;2023-04-03T01:31:10;3.43;;;1.57;;
13411;SDS011;67102;51.666;6.880;2023-04-03T01:33:46;1.67;;;1.40;;
13411;SDS011;67102;51.666;6.880;2023-04-03T01:36:13;2.17;;;1.43;;
13411;SDS011;67102;51.666;6.880;2023-04-03T01:38:41;2.17;;;1.50;;
13411;SDS011;67102;51.666;6.880;2023-04-03T01:41:07;3.17;;;1.70;;
13411;SDS011;67102;51.666;6.880;2023-04-03T01:43:33;2.53;;;1.70;;
13411;SDS011;67102;51.666;6.880;2023-04-03T01:45:59;2.23;;;1.60;;
13411;SDS011;67102;51.666;6.880;2023-04-03T01:48:26;2.17;;;1.30;;
13411;SDS011;67102;51.666;6.880;2023-04-03T01:50:53;2.23;;;1.53;;
13411;SDS011;67102;51.666;6.880;2023-04-03T01:53:19;2.30;;;1.53;;
13411;SDS011;67102;51.666;6.880;2023-04-03T01:55:45;3.17;;;1.10;;
13411;SDS011;67102;51.666;6.880;2023-04-03T01:58:11;1.73;;;1.20;;
13411;SDS011;67102;51.666;6.880;2023-04-03T02:00:37;2.47;;;1.57;;
13411;SDS011;67102;51.666;6.880;2023-04-03T02:03:03;3.20;;;1.47;;
13411;SDS011;67102;51.666;6.880;2023-04-03T02:05:29;1.80;;;1.50;;
13411;SDS011;67102;51.666;6.880;2023-04-03T02:07:56;2.57;;;1.70;;
13411;SDS011;67102;51.666;6.880;2023-04-03T02:10:22;2.50;;;1.30;;
13411;SDS011;67102;51.666;6.880;2023-04-03T02:12:48;2.77;;;1.20;;
13411;SDS011;67102;51.666;6.880;2023-04-03T02:15:14;2.70;;;1.40;;
13411;SDS011;67102;51.666;6.880;2023-04-03T02:17:40;1.40;;;1.10;;
13411;SDS011;67102;51.666;6.880;2023-04-03T02:20:06;1.93;;;1.40;;
13411;SDS011;67102;51.666;6.880;2023-04-03T02:22:33;2.07;;;1.23;;
13411;SDS011;67102;51.666;6.880;2023-04-03T02:25:00;1.80;;;1.30;;
13411;SDS011;67102;51.666;6.880;2023-04-03T02:27:26;1.50;;;1.03;;
13411;SDS011;67102;51.666;6.880;2023-04-03T02:29:52;3.73;;;1.50;;
13411;SDS011;67102;51.666;6.880;2023-04-03T02:32:18;1.73;;;1.03;;
13411;SDS011;67102;51.666;6.880;2023-04-03T02:34:44;2.27;;;1.13;;
13411;SDS011;67102;51.666;6.880;2023-04-03T02:37:10;2.80;;;1.40;;
13411;SDS011;67102;51.666;6.880;2023-04-03T02:39:36;2.80;;;1.30;;
13411;SDS011;67102;51.666;6.880;2023-04-03T02:42:04;1.53;;;1.07;;
13411;SDS011;67102;51.666;6.880;2023-04-03T02:44:30;2.47;;;1.20;;
13411;SDS011;67102;51.666;6.880;2023-04-03T02:46:56;3.77;;;1.20;;
13411;SDS011;67102;51.666;6.880;2023-04-03T02:49:22;2.77;;;1.00;;
13411;SDS011;67102;51.666;6.880;2023-04-03T02:51:48;2.90;;;1.30;;
13411;SDS011;67102;51.666;6.880;2023-04-03T02:54:14;2.73;;;1.40;;
13411;SDS011;67102;51.666;6.880;2023-04-03T02:56:40;2.83;;;1.30;;
13411;SDS011;67102;51.666;6.880;2023-04-03T02:59:07;2.80;;;1.30;;
13411;SDS011;67102;51.666;6.880;2023-04-03T03:01:33;2.63;;;1.50;;
13411;SDS011;67102;51.666;6.880;2023-04-03T03:03:59;3.37;;;1.50;;
13411;SDS011;67102;51.666;6.880;2023-04-03T03:06:25;3.30;;;1.60;;
13411;SDS011;67102;51.666;6.880;2023-04-03T03:08:51;2.27;;;1.30;;
13411;SDS011;67102;51.666;6.880;2023-04-03T03:11:18;2.10;;;1.30;;
13411;SDS011;67102;51.666;6.880;2023-04-03T03:13:44;2.30;;;1.47;;
13411;SDS011;67102;51.666;6.880;2023-04-03T03:16:11;2.23;;;1.30;;
13411;SDS011;67102;51.666;6.880;2023-04-03T03:18:37;1.73;;;1.40;;
13411;SDS011;67102;51.666;6.880;2023-04-03T03:21:03;1.83;;;1.20;;
13411;SDS011;67102;51.666;6.880;2023-04-03T03:23:30;2.60;;;1.53;;
13411;SDS011;67102;51.666;6.880;2023-04-03T03:25:57;4.33;;;1.80;;
13411;SDS011;67102;51.666;6.880;2023-04-03T03:28:25;2.83;;;1.20;;
13411;SDS011;67102;51.666;6.880;2023-04-03T03:30:51;3.27;;;1.50;;
13411;SDS011;67102;51.666;6.880;2023-04-03T03:33:18;1.97;;;1.40;;
13411;SDS011;67102;51.666;6.880;2023-04-03T03:35:45;2.63;;;1.57;;
13411;SDS011;67102;51.666;6.880;2023-04-03T03:38:11;2.10;;;1.37;;
13411;SDS011;67102;51.666;6.880;2023-04-03T03:40:37;3.87;;;1.80;;
13411;SDS011;67102;51.666;6.880;2023-04-03T03:43:03;2.47;;;1.50;;
13411;SDS011;67102;51.666;6.880;2023-04-03T03:45:29;3.50;;;1.63;;
13411;SDS011;67102;51.666;6.880;2023-04-03T03:47:55;2.50;;;1.70;;
13411;SDS011;67102;51.666;6.880;2023-04-03T03:50:22;3.70;;;1.70;;
13411;SDS011;67102;51.666;6.880;2023-04-03T03:52:48;2.50;;;1.30;;
13411;SDS011;67102;51.666;6.880;2023-04-03T03:55:14;2.37;;;1.40;;
13411;SDS011;67102;51.666;6.880;2023-04-03T03:57:41;2.23;;;1.43;;
13411;SDS011;67102;51.666;6.880;2023-04-03T04:00:07;2.63;;;1.53;;
13411;SDS011;67102;51.666;6.880;2023-04-03T04:02:34;4.97;;;1.63;;
13411;SDS011;67102;51.666;6.880;2023-04-03T04:05:00;2.77;;;1.67;;
13411;SDS011;67102;51.666;6.880;2023-04-03T04:07:28;2.17;;;1.67;;
13411;SDS011;67102;51.666;6.880;2023-04-03T04:09:53;4.47;;;1.57;;
13411;SDS011;67102;51.666;6.880;2023-04-03T04:12:19;3.97;;;1.67;;
13411;SDS011;67102;51.666;6.880;2023-04-03T04:14:46;5.13;;;1.57;;
13411;SDS011;67102;51.666;6.880;2023-04-03T04:17:12;3.07;;;1.80;;
13411;SDS011;67102;51.666;6.880;2023-04-03T04:19:38;2.33;;;1.40;;
13411;SDS011;67102;51.666;6.880;2023-04-03T04:22:04;2.37;;;1.40;;
13411;SDS011;67102;51.666;6.880;2023-04-03T04:24:32;3.33;;;1.53;;
13411;SDS011;67102;51.666;6.880;2023-04-03T04:26:59;4.47;;;1.73;;
13411;SDS011;67102;51.666;6.880;2023-04-03T04:29:25;3.40;;;1.50;;
13411;SDS011;67102;51.666;6.880;2023-04-03T04:31:51;2.83;;;1.47;;
13411;SDS011;67102;51.666;6.880;2023-04-03T04:34:17;3.30;;;1.53;;
13411;SDS011;67102;51.666;6.880;2023-04-03T04:36:43;3.17;;;1.77;;
13411;SDS011;67102;51.666;6.880;2023-04-03T04:39:09;3.77;;;1.47;;
13411;SDS011;67102;51.666;6.880;2023-04-03T04:41:36;3.23;;;1.80;;
13411;SDS011;67102;51.666;6.880;2023-04-03T04:44:02;3.80;;;1.73;;
13411;SDS011;67102;51.666;6.880;2023-04-03T04:46:28;4.10;;;1.73;;
13411;SDS011;67102;51.666;6.880;2023-04-03T04:48:54;4.40;;;1.90;;
13411;SDS011;67102;51.666;6.880;2023-04-03T04:51:21;5.20;;;1.80;;
13411;SDS011;67102;51.666;6.880;2023-04-03T04:53:46;4.53;;;1.83;;
13411;SDS011;67102;51.666;6.880;2023-04-03T04:56:12;3.40;;;1.67;;
13411;SDS011;67102;51.666;6.880;2023-04-03T04:58:40;6.03;;;1.80;;
13411;SDS011;67102;51.666;6.880;2023-04-03T05:01:07;4.20;;;1.60;;
13411;SDS011;67102;51.666;6.880;2023-04-03T05:03:35;2.00;;;1.50;;
13411;SDS011;67102;51.666;6.880;2023-04-03T05:06:01;2.53;;;1.50;;
13411;SDS011;67102;51.666;6.880;2023-04-03T05:08:28;6.60;;;1.80;;
13411;SDS011;67102;51.666;6.880;2023-04-03T05:10:54;3.43;;;1.60;;
13411;SDS011;67102;51.666;6.880;2023-04-03T05:13:20;2.97;;;1.57;;
13411;SDS011;67102;51.666;6.880;2023-04-03T05:15:48;3.23;;;1.60;;
13411;SDS011;67102;51.666;6.880;2023-04-03T05:18:13;2.33;;;1.50;;
13411;SDS011;67102;51.666;6.880;2023-04-03T05:20:40;2.97;;;1.40;;
13411;SDS011;67102;51.666;6.880;2023-04-03T05:23:06;4.37;;;1.97;;
13411;SDS011;67102;51.666;6.880;2023-04-03T05:25:32;3.03;;;1.60;;
13411;SDS011;67102;51.666;6.880;2023-04-03T05:27:58;4.97;;;1.50;;
13411;SDS011;67102;51.666;6.880;2023-04-03T05:30:24;2.67;;;1.40;;
13411;SDS011;67102;51.666;6.880;2023-04-03T05:32:51;3.50;;;1.50;;
13411;SDS011;67102;51.666;6.880;2023-04-03T05:35:18;2.27;;;1.53;;
13411;SDS011;67102;51.666;6.880;2023-04-03T05:37:44;2.07;;;1.50;;
13411;SDS011;67102;51.666;6.880;2023-04-03T05:40:10;3.30;;;1.50;;
13411;SDS011;67102;51.666;6.880;2023-04-03T05:42:36;3.37;;;1.33;;
13411;SDS011;67102;51.666;6.880;2023-04-03T05:45:02;3.40;;;1.57;;
13411;SDS011;67102;51.666;6.880;2023-04-03T05:47:29;2.43;;;1.50;;
13411;SDS011;67102;51.666;6.880;2023-04-03T05:49:57;2.63;;;1.50;;
13411;SDS011;67102;51.666;6.880;2023-04-03T05:52:23;3.93;;;1.60;;
13411;SDS011;67102;51.666;6.880;2023-04-03T05:54:53;2.27;;;1.60;;
13411;SDS011;67102;51.666;6.880;2023-04-03T05:57:19;3.63;;;1.70;;
13411;SDS011;67102;51.666;6.880;2023-04-03T05:59:46;3.67;;;1.67;;
13411;SDS011;67102;51.666;6.880;2023-04-03T06:02:13;2.63;;;1.50;;
13411;SDS011;67102;51.666;6.880;2023-04-03T06:04:41;3.43;;;1.87;;
13411;SDS011;67102;51.666;6.880;2023-04-03T06:07:09;3.60;;;1.50;;
13411;SDS011;67102;51.666;6.880;2023-04-03T06:09:38;4.30;;;1.60;;
13411;SDS011;67102;51.666;6.880;2023-04-03T06:12:04;3.53;;;1.70;;
13411;SDS011;67102;51.666;6.880;2023-04-03T06:14:30;5.20;;;1.80;;
13411;SDS011;67102;51.666;6.880;2023-04-03T06:16:56;3.43;;;1.70;;
13411;SDS011;67102;51.666;6.880;2023-04-03T06:19:23;1.80;;;1.50;;
13411;SDS011;67102;51.666;6.880;2023-04-03T06:21:49;4.57;;;1.67;;
13411;SDS011;67102;51.666;6.880;2023-04-03T06:24:16;2.47;;;1.53;;
13411;SDS011;67102;51.666;6.880;2023-04-03T06:26:43;4.00;;;2.03;;
13411;SDS011;67102;51.666;6.880;2023-04-03T06:29:09;2.10;;;1.40;;
13411;SDS011;67102;51.666;6.880;2023-04-03T06:31:35;2.43;;;1.77;;
13411;SDS011;67102;51.666;6.880;2023-04-03T06:34:01;3.60;;;1.77;;
13411;SDS011;67102;51.666;6.880;2023-04-03T06:36:27;3.00;;;1.53;;
13411;SDS011;67102;51.666;6.880;2023-04-03T06:38:53;2.40;;;1.60;;
13411;SDS011;67102;51.666;6.880;2023-04-03T06:41:21;2.90;;;1.60;;
13411;SDS011;67102;51.666;6.880;2023-04-03T06:43:47;1.80;;;1.33;;
13411;SDS011;67102;51.666;6.880;2023-04-03T06:46:14;2.97;;;1.50;;
13411;SDS011;67102;51.666;6.880;2023-04-03T06:48:40;4.60;;;1.70;;
13411;SDS011;67102;51.666;6.880;2023-04-03T06:51:06;2.37;;;1.63;;
13411;SDS011;67102;51.666;6.880;2023-04-03T06:53:44;3.70;;;1.60;;
13411;SDS011;67102;51.666;6.880;2023-04-03T06:56:09;3.40;;;1.90;;
13411;SDS011;67102;51.666;6.880;2023-04-03T06:58:37;3.07;;;1.67;;
13411;SDS011;67102;51.666;6.880;2023-04-03T07:01:03;2.17;;;1.50;;
13411;SDS011;67102;51.666;6.880;2023-04-03T07:03:29;4.90;;;2.23;;
13411;SDS011;67102;51.666;6.880;2023-04-03T07:05:55;3.37;;;1.40;;
13411;SDS011;67102;51.666;6.880;2023-04-03T07:08:21;2.50;;;1.80;;
13411;SDS011;67102;51.666;6.880;2023-04-03T07:10:47;3.50;;;1.60;;
13411;SDS011;67102;51.666;6.880;2023-04-03T07:13:13;2.97;;;1.70;;
13411;SDS011;67102;51.666;6.880;2023-04-03T07:15:41;3.10;;;1.70;;
13411;SDS011;67102;51.666;6.880;2023-04-03T07:18:06;2.83;;;1.63;;
13411;SDS011;67102;51.666;6.880;2023-04-03T07:20:32;3.27;;;1.57;;
13411;SDS011;67102;51.666;6.880;2023-04-03T07:22:58;5.23;;;1.63;;
13411;SDS011;67102;51.666;6.880;2023-04-03T07:25:24;1.80;;;1.53;;
13411;SDS011;67102;51.666;6.880;2023-04-03T07:27:50;3.43;;;1.53;;
13411;SDS011;67102;51.666;6.880;2023-04-03T07:30:16;4.13;;;1.83;;
13411;SDS011;67102;51.666;6.880;2023-04-03T07:32:44;4.13;;;1.83;;
13411;SDS011;67102;51.666;6.880;2023-04-03T07:35:10;2.67;;;1.50;;
13411;SDS011;67102;51.666;6.880;2023-04-03T07:37:36;2.00;;;1.37;;
13411;SDS011;67102;51.666;6.880;2023-04-03T07:40:02;3.17;;;1.70;;
13411;SDS011;67102;51.666;6.880;2023-04-03T07:42:29;3.67;;;1.60;;
13411;SDS011;67102;51.666;6.880;2023-04-03T07:44:55;1.97;;;1.40;;
13411;SDS011;67102;51.666;6.880;2023-04-03T07:47:21;4.33;;;1.87;;
13411;SDS011;67102;51.666;6.880;2023-04-03T07:49:48;2.80;;;1.63;;
13411;SDS011;67102;51.666;6.880;2023-04-03T07:52:14;3.13;;;1.60;;
13411;SDS011;67102;51.666;6.880;2023-04-03T07:54:40;3.17;;;1.50;;
13411;SDS011;67102;51.666;6.880;2023-04-03T07:57:06;5.33;;;1.83;;
13411;SDS011;67102;51.666;6.880;2023-04-03T07:59:32;1.70;;;1.50;;
13411;SDS011;67102;51.666;6.880;2023-04-03T08:01:58;3.00;;;1.60;;
13411;SDS011;67102;51.666;6.880;2023-04-03T08:04:24;2.70;;;1.30;;
13411;SDS011;67102;51.666;6.880;2023-04-03T08:06:52;3.10;;;1.50;;
13411;SDS011;67102;51.666;6.880;2023-04-03T08:09:18;2.03;;;1.50;;
13411;SDS011;67102;51.666;6.880;2023-04-03T08:11:44;2.57;;;1.60;;
13411;SDS011;67102;51.666;6.880;2023-04-03T08:14:10;1.90;;;1.23;;
13411;SDS011;67102;51.666;6.880;2023-04-03T08:16:36;2.20;;;1.30;;
13411;SDS011;67102;51.666;6.880;2023-04-03T08:19:02;2.67;;;1.47;;
13411;SDS011;67102;51.666;6.880;2023-04-03T08:21:28;3.20;;;1.43;;
13411;SDS011;67102;51.666;6.880;2023-04-03T08:23:55;4.23;;;1.40;;
13411;SDS011;67102;51.666;6.880;2023-04-03T08:26:21;2.67;;;1.50;;
13411;SDS011;67102;51.666;6.880;2023-04-03T08:28:48;1.60;;;1.50;;
13411;SDS011;67102;51.666;6.880;2023-04-03T08:31:15;2.83;;;1.37;;
13411;SDS011;67102;51.666;6.880;2023-04-03T08:33:43;3.07;;;1.30;;
13411;SDS011;67102;51.666;6.880;2023-04-03T08:36:16;2.63;;;1.50;;
13411;SDS011;67102;51.666;6.880;2023-04-03T08:38:44;1.80;;;1.13;;
13411;SDS011;67102;51.666;6.880;2023-04-03T08:41:13;2.90;;;1.47;;
13411;SDS011;67102;51.666;6.880;2023-04-03T08:43:53;2.93;;;1.40;;
13411;SDS011;67102;51.666;6.880;2023-04-03T08:46:31;2.30;;;1.40;;
13411;SDS011;67102;51.666;6.880;2023-04-03T08:49:10;1.50;;;1.10;;
13411;SDS011;67102;51.666;6.880;2023-04-03T08:51:45;2.70;;;1.33;;
13411;SDS011;67102;51.666;6.880;2023-04-03T08:54:16;1.93;;;1.20;;
13411;SDS011;67102;51.666;6.880;2023-04-03T08:56:53;1.53;;;1.23;;
13411;SDS011;67102;51.666;6.880;2023-04-03T08:59:23;2.23;;;1.47;;
13411;SDS011;67102;51.666;6.880;2023-04-03T09:01:53;1.33;;;1.10;;
13411;SDS011;67102;51.666;6.880;2023-04-03T09:04:21;2.73;;;1.60;;
13411;SDS011;67102;51.666;6.880;2023-04-03T09:06:49;4.37;;;1.30;;
13411;SDS011;67102;51.666;6.880;2023-04-03T09:09:23;1.83;;;1.30;;
13411;SDS011;67102;51.666;6.880;2023-04-03T09:12:00;1.90;;;1.30;;
13411;SDS011;67102;51.666;6.880;2023-04-03T09:14:38;2.87;;;1.30;;
13411;SDS011;67102;51.666;6.880;2023-04-03T09:17:09;2.37;;;1.60;;
13411;SDS011;67102;51.666;6.880;2023-04-03T09:19:41;1.97;;;1.60;;
13411;SDS011;67102;51.666;6.880;2023-04-03T09:22:17;2.20;;;1.43;;
13411;SDS011;67102;51.666;6.880;2023-04-03T09:24:49;2.17;;;1.40;;
13411;SDS011;67102;51.666;6.880;2023-04-03T09:27:23;2.67;;;1.30;;
13411;SDS011;67102;51.666;6.880;2023-04-03T09:29:49;2.00;;;1.20;;
13411;SDS011;67102;51.666;6.880;2023-04-03T09:32:21;1.40;;;1.10;;
13411;SDS011;67102;51.666;6.880;2023-04-03T09:34:53;1.97;;;1.47;;
13411;SDS011;67102;51.666;6.880;2023-04-03T09:37:34;2.33;;;1.23;;
13411;SDS011;67102;51.666;6.880;2023-04-03T09:40:04;2.73;;;1.10;;
13411;SDS011;67102;51.666;6.880;2023-04-03T09:42:40;2.50;;;1.27;;
13411;SDS011;67102;51.666;6.880;2023-04-03T09:45:19;1.30;;;1.20;;
13411;SDS011;67102;51.666;6.880;2023-04-03T09:47:49;2.00;;;1.47;;
13411;SDS011;67102;51.666;6.880;2023-04-03T09:50:33;2.63;;;1.40;;
13411;SDS011;67102;51.666;6.880;2023-04-03T09:53:04;1.63;;;1.20;;
13411;SDS011;67102;51.666;6.880;2023-04-03T09:55:33;2.40;;;1.30;;
13411;SDS011;67102;51.666;6.880;2023-04-03T09:58:23;2.03;;;1.30;;
13411;SDS011;67102;51.666;6.880;2023-04-03T10:00:55;1.50;;;1.20;;
13411;SDS011;67102;51.666;6.880;2023-04-03T10:03:24;1.20;;;1.07;;
13411;SDS011;67102;51.666;6.880;2023-04-03T10:05:54;1.10;;;1.00;;
13411;SDS011;67102;51.666;6.880;2023-04-03T10:08:22;1.23;;;0.80;;
13411;SDS011;67102;51.666;6.880;2023-04-03T10:11:08;1.70;;;1.00;;
13411;SDS011;67102;51.666;6.880;2023-04-03T10:13:50;1.10;;;1.00;;
13411;SDS011;67102;51.666;6.880;2023-04-03T10:16:20;2.73;;;1.27;;
13411;SDS011;67102;51.666;6.880;2023-04-03T10:18:53;1.63;;;1.20;;
13411;SDS011;67102;51.666;6.880;2023-04-03T10:21:33;1.50;;;1.10;;
13411;SDS011;67102;51.666;6.880;2023-04-03T10:24:07;1.50;;;1.00;;
13411;SDS011;67102;51.666;6.880;2023-04-03T10:26:39;1.00;;;0.90;;
13411;SDS011;67102;51.666;6.880;2023-04-03T10:29:19;3.17;;;1.00;;
13411;SDS011;67102;51.666;6.880;2023-04-03T10:31:58;1.20;;;0.90;;
13411;SDS011;67102;51.666;6.880;2023-04-03T10:34:33;2.60;;;1.00;;
13411;SDS011;67102;51.666;6.880;2023-04-03T10:37:06;1.77;;;0.93;;
13411;SDS011;67102;51.666;6.880;2023-04-03T10:39:40;1.50;;;1.20;;
13411;SDS011;67102;51.666;6.880;2023-04-03T10:42:13;1.17;;;0.90;;
13411;SDS011;67102;51.666;6.880;2023-04-03T10:44:52;2.47;;;1.27;;
13411;SDS011;67102;51.666;6.880;2023-04-03T10:47:37;1.50;;;1.00;;
13411;SDS011;67102;51.666;6.880;2023-04-03T10:50:23;3.77;;;1.40;;
13411;SDS011;67102;51.666;6.880;2023-04-03T10:52:57;1.97;;;0.90;;
13411;SDS011;67102;51.666;6.880;2023-04-03T10:55:32;1.13;;;0.97;;
13411;SDS011;67102;51.666;6.880;2023-04-03T10:58:04;2.20;;;1.30;;
13411;SDS011;67102;51.666;6.880;2023-04-03T11:00:35;2.37;;;1.10;;
13411;SDS011;67102;51.666;6.880;2023-04-03T11:03:09;1.67;;;1.10;;
13411;SDS011;67102;51.666;6.880;2023-04-03T11:05:39;1.53;;;1.13;;
13411;SDS011;67102;51.666;6.880;2023-04-03T11:08:11;1.87;;;1.20;;
13411;SDS011;67102;51.666;6.880;2023-04-03T11:10:47;1.83;;;1.00;;
13411;SDS011;67102;51.666;6.880;2023-04-03T11:13:17;1.87;;;1.30;;
13411;SDS011;67102;51.666;6.880;2023-04-03T11:15:49;2.87;;;1.17;;
13411;SDS011;67102;51.666;6.880;2023-04-03T11:18:19;2.20;;;1.00;;
13411;SDS011;67102;51.666;6.880;2023-04-03T11:20:53;1.63;;;1.20;;
13411;SDS011;67102;51.666;6.880;2023-04-03T11:23:28;1.53;;;0.90;;
13411;SDS011;67102;51.666;6.880;2023-04-03T11:26:00;1.47;;;1.20;;
13411;SDS011;67102;51.666;6.880;2023-04-03T11:28:35;1.83;;;1.10;;
13411;SDS011;67102;51.666;6.880;2023-04-03T11:31:05;1.83;;;1.17;;
13411;SDS011;67102;51.666;6.880;2023-04-03T11:33:55;1.37;;;0.80;;
13411;SDS011;67102;51.666;6.880;2023-04-03T11:36:34;1.57;;;1.20;;
13411;SDS011;67102;51.666;6.880;2023-04-03T11:39:14;1.93;;;1.20;;
13411;SDS011;67102;51.666;6.880;2023-04-03T11:41:47;2.27;;;1.23;;
13411;SDS011;67102;51.666;6.880;2023-04-03T11:44:26;1.93;;;1.10;;
13411;SDS011;67102;51.666;6.880;2023-04-03T11:47:00;2.10;;;1.30;;
13411;SDS011;67102;51.666;6.880;2023-04-03T11:58:26;2.50;;;1.13;;
13411;SDS011;67102;51.666;6.880;2023-04-03T12:00:59;1.60;;;1.00;;
13411;SDS011;67102;51.666;6.880;2023-04-03T12:06:49;2.43;;;1.50;;
13411;SDS011;67102;51.666;6.880;2023-04-03T12:12:43;2.07;;;1.10;;
13411;SDS011;67102;51.666;6.880;2023-04-03T12:24:30;1.70;;;1.20;;
13411;SDS011;67102;51.666;6.880;2023-04-03T12:27:02;2.00;;;0.90;;
13411;SDS011;67102;51.666;6.880;2023-04-03T12:29:40;1.97;;;1.10;;
13411;SDS011;67102;51.666;6.880;2023-04-03T12:32:15;2.77;;;1.10;;
13411;SDS011;67102;51.666;6.880;2023-04-03T12:34:58;1.97;;;1.30;;
13411;SDS011;67102;51.666;6.880;2023-04-03T12:37:40;1.47;;;1.20;;
13411;SDS011;67102;51.666;6.880;2023-04-03T12:40:24;3.87;;;1.20;;
13411;SDS011;67102;51.666;6.880;2023-04-03T12:43:01;1.90;;;1.10;;
13411;SDS011;67102;51.666;6.880;2023-04-03T12:45:56;1.80;;;1.10;;
13411;SDS011;67102;51.666;6.880;2023-04-03T12:48:28;2.60;;;1.40;;
13411;SDS011;67102;51.666;6.880;2023-04-03T12:50:59;1.50;;;1.03;;
13411;SDS011;67102;51.666;6.880;2023-04-03T12:53:26;2.67;;;1.30;;
13411;SDS011;67102;51.666;6.880;2023-04-03T12:55:54;1.57;;;1.20;;
13411;SDS011;67102;51.666;6.880;2023-04-03T12:58:21;2.47;;;1.00;;
13411;SDS011;67102;51.666;6.880;2023-04-03T13:00:58;1.97;;;1.33;;
13411;SDS011;67102;51.666;6.880;2023-04-03T13:03:26;1.60;;;1.30;;
13411;SDS011;67102;51.666;6.880;2023-04-03T13:05:54;4.23;;;1.20;;
13411;SDS011;67102;51.666;6.880;2023-04-03T13:08:24;2.53;;;1.60;;
13411;SDS011;67102;51.666;6.880;2023-04-03T13:10:51;1.50;;;1.10;;
13411;SDS011;67102;51.666;6.880;2023-04-03T13:13:21;2.17;;;1.00;;
13411;SDS011;67102;51.666;6.880;2023-04-03T13:15:48;1.43;;;1.17;;
13411;SDS011;67102;51.666;6.880;2023-04-03T13:18:24;2.37;;;1.20;;
13411;SDS011;67102;51.666;6.880;2023-04-03T13:20:53;2.33;;;1.20;;
13411;SDS011;67102;51.666;6.880;2023-04-03T13:23:26;1.70;;;1.40;;
13411;SDS011;67102;51.666;6.880;2023-04-03T13:25:52;1.53;;;1.00;;
13411;SDS011;67102;51.666;6.880;2023-04-03T13:28:19;2.07;;;1.20;;
13411;SDS011;67102;51.666;6.880;2023-04-03T13:33:34;1.23;;;1.07;;
13411;SDS011;67102;51.666;6.880;2023-04-03T13:36:03;1.90;;;1.40;;
13411;SDS011;67102;51.666;6.880;2023-04-03T13:38:32;2.27;;;1.10;;
13411;SDS011;67102;51.666;6.880;2023-04-03T13:41:00;1.43;;;1.00;;
13411;SDS011;67102;51.666;6.880;2023-04-03T13:43:30;4.00;;;1.30;;
13411;SDS011;67102;51.666;6.880;2023-04-03T13:46:00;1.50;;;1.20;;
13411;SDS011;67102;51.666;6.880;2023-04-03T13:48:46;4.27;;;1.33;;
13411;SDS011;67102;51.666;6.880;2023-04-03T13:51:18;1.77;;;1.17;;
13411;SDS011;67102;51.666;6.880;2023-04-03T13:53:48;2.77;;;1.40;;
13411;SDS011;67102;51.666;6.880;2023-04-03T13:56:18;2.20;;;1.40;;
13411;SDS011;67102;51.666;6.880;2023-04-03T13:58:54;3.20;;;1.20;;
13411;SDS011;67102;51.666;6.880;2023-04-03T14:01:35;2.67;;;1.37;;
13411;SDS011;67102;51.666;6.880;2023-04-03T14:04:11;1.30;;;1.07;;
13411;SDS011;67102;51.666;6.880;2023-04-03T14:06:43;4.70;;;1.47;;
13411;SDS011;67102;51.666;6.880;2023-04-03T14:09:10;2.20;;;1.30;;
13411;SDS011;67102;51.666;6.880;2023-04-03T14:11:36;2.00;;;1.30;;
13411;SDS011;67102;51.666;6.880;2023-04-03T14:14:05;2.30;;;1.10;;
13411;SDS011;67102;51.666;6.880;2023-04-03T14:16:38;1.50;;;1.40;;
13411;SDS011;67102;51.666;6.880;2023-04-03T14:19:10;2.77;;;1.40;;
13411;SDS011;67102;51.666;6.880;2023-04-03T14:21:46;2.83;;;1.47;;
13411;SDS011;67102;51.666;6.880;2023-04-03T14:24:13;3.10;;;1.53;;
13411;SDS011;67102;51.666;6.880;2023-04-03T14:26:38;1.77;;;1.20;;
13411;SDS011;67102;51.666;6.880;2023-04-03T14:29:05;2.37;;;1.20;;
13411;SDS011;67102;51.666;6.880;2023-04-03T14:31:30;2.77;;;1.57;;
13411;SDS011;67102;51.666;6.880;2023-04-03T14:33:56;1.57;;;1.27;;
13411;SDS011;67102;51.666;6.880;2023-04-03T14:36:23;1.80;;;1.27;;
13411;SDS011;67102;51.666;6.880;2023-04-03T14:38:54;1.67;;;1.23;;
13411;SDS011;67102;51.666;6.880;2023-04-03T14:41:21;2.47;;;1.33;;
13411;SDS011;67102;51.666;6.880;2023-04-03T14:43:49;2.67;;;1.50;;
13411;SDS011;67102;51.666;6.880;2023-04-03T14:46:16;2.60;;;1.50;;
13411;SDS011;67102;51.666;6.880;2023-04-03T14:48:45;2.23;;;1.10;;
13411;SDS011;67102;51.666;6.880;2023-04-03T14:51:11;3.20;;;1.40;;
13411;SDS011;67102;51.666;6.880;2023-04-03T14:53:38;2.13;;;1.37;;
13411;SDS011;67102;51.666;6.880;2023-04-03T14:56:08;1.93;;;1.30;;
13411;SDS011;67102;51.666;6.880;2023-04-03T14:58:37;2.47;;;1.47;;
13411;SDS011;67102;51.666;6.880;2023-04-03T15:01:03;1.67;;;1.20;;
13411;SDS011;67102;51.666;6.880;2023-04-03T15:03:29;2.57;;;1.50;;
13411;SDS011;67102;51.666;6.880;2023-04-03T15:05:55;1.17;;;1.03;;
13411;SDS011;67102;51.666;6.880;2023-04-03T15:08:22;1.43;;;1.20;;
13411;SDS011;67102;51.666;6.880;2023-04-03T15:10:51;3.13;;;1.43;;
13411;SDS011;67102;51.666;6.880;2023-04-03T15:13:19;1.43;;;1.10;;
13411;SDS011;67102;51.666;6.880;2023-04-03T15:15:45;3.20;;;1.30;;
13411;SDS011;67102;51.666;6.880;2023-04-03T15:18:14;1.70;;;1.30;;
13411;SDS011;67102;51.666;6.880;2023-04-03T15:20:43;3.60;;;1.30;;
13411;SDS011;67102;51.666;6.880;2023-04-03T15:23:10;1.73;;;1.13;;
13411;SDS011;67102;51.666;6.880;2023-04-03T15:25:38;5.33;;;1.50;;
13411;SDS011;67102;51.666;6.880;2023-04-03T15:28:04;3.07;;;1.47;;
13411;SDS011;67102;51.666;6.880;2023-04-03T15:30:33;3.70;;;1.60;;